sensor_id;sensor_type;location;lat;lon;timestamp;pressure;altitude;pressure_sealevel;temperature;humidity
66880;BME280;53789;51.392;10.234;2022-07-23T00:00:20;98502.38;;;16.74;78.90
66880;BME280;53789;51.392;10.234;2022-07-23T00:00:40;98498.78;;;16.73;79.20
66880;BME280;53789;51.392;10.234;2022-07-23T00:01:01;98505.94;;;16.74;78.64
66880;BME280;53789;51.392;10.234;2022-07-23T00:01:22;98498.44;;;16.75;78.78
66880;BME280;53789;51.392;10.234;2022-07-23T00:01:43;98497.59;;;16.74;79.13
66880;BME280;53789;51.392;10.234;2022-07-23T00:02:03;98505.13;;;16.74;79.38
66880;BME280;53789;51.392;10.234;2022-07-23T00:02:24;98507.13;;;16.73;78.35
66880;BME280;53789;51.392;10.234;2022-07-23T00:02:44;98499.94;;;16.72;78.55
66880;BME280;53789;51.392;10.234;2022-07-23T00:03:05;98501.88;;;16.72;77.84
66880;BME280;53789;51.392;10.234;2022-07-23T00:03:25;98487.19;;;16.71;78.44
66880;BME280;53789;51.392;10.234;2022-07-23T00:03:46;98490.31;;;16.70;77.84
66880;BME280;53789;51.392;10.234;2022-07-23T00:04:06;98477.91;;;16.67;78.54
66880;BME280;53789;51.392;10.234;2022-07-23T00:04:27;98472.69;;;16.66;78.58
66880;BME280;53789;51.392;10.234;2022-07-23T00:04:47;98463.56;;;16.65;78.85
66880;BME280;53789;51.392;10.234;2022-07-23T00:05:08;98469.47;;;16.64;78.50
66880;BME280;53789;51.392;10.234;2022-07-23T00:05:29;98469.47;;;16.64;79.31
66880;BME280;53789;51.392;10.234;2022-07-23T00:05:49;98461.13;;;16.64;79.66
66880;BME280;53789;51.392;10.234;2022-07-23T00:06:09;98465.53;;;16.65;80.01
66880;BME280;53789;51.392;10.234;2022-07-23T00:06:30;98464.38;;;16.66;80.97
66880;BME280;53789;51.392;10.234;2022-07-23T00:06:50;98466.81;;;16.67;81.13
66880;BME280;53789;51.392;10.234;2022-07-23T00:07:10;98464.84;;;16.68;80.64
66880;BME280;53789;51.392;10.234;2022-07-23T00:07:31;98455.34;;;16.69;80.12
66880;BME280;53789;51.392;10.234;2022-07-23T00:07:51;98469.56;;;16.67;80.10
66880;BME280;53789;51.392;10.234;2022-07-23T00:08:12;98470.75;;;16.66;79.43
66880;BME280;53789;51.392;10.234;2022-07-23T00:08:32;98460.00;;;16.65;78.78
66880;BME280;53789;51.392;10.234;2022-07-23T00:08:52;98461.94;;;16.64;78.22
66880;BME280;53789;51.392;10.234;2022-07-23T00:09:13;98460.00;;;16.65;78.90
66880;BME280;53789;51.392;10.234;2022-07-23T00:09:33;98458.34;;;16.64;78.72
66880;BME280;53789;51.392;10.234;2022-07-23T00:09:53;98458.69;;;16.62;78.65
66880;BME280;53789;51.392;10.234;2022-07-23T00:10:14;98455.13;;;16.62;78.92
66880;BME280;53789;51.392;10.234;2022-07-23T00:10:34;98457.06;;;16.61;78.45
66880;BME280;53789;51.392;10.234;2022-07-23T00:10:55;98460.19;;;16.60;79.55
66880;BME280;53789;51.392;10.234;2022-07-23T00:11:15;98457.41;;;16.60;79.17
66880;BME280;53789;51.392;10.234;2022-07-23T00:11:35;98454.63;;;16.60;79.82
66880;BME280;53789;51.392;10.234;2022-07-23T00:11:56;98455.44;;;16.60;80.02
66880;BME280;53789;51.392;10.234;2022-07-23T00:12:16;98451.06;;;16.59;79.52
66880;BME280;53789;51.392;10.234;2022-07-23T00:12:36;98460.19;;;16.60;80.67
66880;BME280;53789;51.392;10.234;2022-07-23T00:12:57;98449.88;;;16.60;80.45
66880;BME280;53789;51.392;10.234;2022-07-23T00:13:17;98455.91;;;16.62;80.37
66880;BME280;53789;51.392;10.234;2022-07-23T00:13:37;98451.16;;;16.63;80.72
66880;BME280;53789;51.392;10.234;2022-07-23T00:13:58;98459.16;;;16.64;81.08
66880;BME280;53789;51.392;10.234;2022-07-23T00:14:18;98456.88;;;16.66;80.48
66880;BME280;53789;51.392;10.234;2022-07-23T00:14:38;98461.25;;;16.67;80.41
66880;BME280;53789;51.392;10.234;2022-07-23T00:14:59;98462.88;;;16.68;80.34
66880;BME280;53789;51.392;10.234;2022-07-23T00:15:19;98466.94;;;16.71;80.53
66880;BME280;53789;51.392;10.234;2022-07-23T00:15:39;98469.72;;;16.71;79.31
66880;BME280;53789;51.392;10.234;2022-07-23T00:16:00;98472.16;;;16.72;79.23
66880;BME280;53789;51.392;10.234;2022-07-23T00:16:20;98471.00;;;16.73;79.33
66880;BME280;53789;51.392;10.234;2022-07-23T00:16:40;98471.31;;;16.72;78.48
66880;BME280;53789;51.392;10.234;2022-07-23T00:17:00;98474.78;;;16.69;78.16
66880;BME280;53789;51.392;10.234;2022-07-23T00:17:21;98474.31;;;16.67;78.75
66880;BME280;53789;51.392;10.234;2022-07-23T00:17:41;98472.69;;;16.66;79.30
66880;BME280;53789;51.392;10.234;2022-07-23T00:18:01;98474.31;;;16.67;78.93
66880;BME280;53789;51.392;10.234;2022-07-23T00:18:22;98466.34;;;16.65;78.92
66880;BME280;53789;51.392;10.234;2022-07-23T00:18:42;98461.59;;;16.66;77.99
66880;BME280;53789;51.392;10.234;2022-07-23T00:19:03;98458.00;;;16.65;77.92
66880;BME280;53789;51.392;10.234;2022-07-23T00:19:23;98465.19;;;16.66;77.64
66880;BME280;53789;51.392;10.234;2022-07-23T00:19:44;98462.41;;;16.66;77.59
66880;BME280;53789;51.392;10.234;2022-07-23T00:20:04;98452.47;;;16.65;77.87
66880;BME280;53789;51.392;10.234;2022-07-23T00:20:25;98445.75;;;16.66;78.37
66880;BME280;53789;51.392;10.234;2022-07-23T00:20:45;98448.53;;;16.66;78.00
66880;BME280;53789;51.392;10.234;2022-07-23T00:21:07;98446.56;;;16.67;77.85
66880;BME280;53789;51.392;10.234;2022-07-23T00:21:27;98446.56;;;16.67;79.08
66880;BME280;53789;51.392;10.234;2022-07-23T00:21:48;98436.25;;;16.67;78.60
66880;BME280;53789;51.392;10.234;2022-07-23T00:22:08;98436.25;;;16.67;78.00
66880;BME280;53789;51.392;10.234;2022-07-23T00:22:28;98430.69;;;16.67;78.31
66880;BME280;53789;51.392;10.234;2022-07-23T00:22:51;98427.94;;;16.67;78.00
66880;BME280;53789;51.392;10.234;2022-07-23T00:23:12;98425.16;;;16.67;77.67
66880;BME280;53789;51.392;10.234;2022-07-23T00:23:33;98427.94;;;16.67;78.43
66880;BME280;53789;51.392;10.234;2022-07-23T00:23:53;98427.56;;;16.69;77.91
66880;BME280;53789;51.392;10.234;2022-07-23T00:24:13;98426.78;;;16.68;78.35
66880;BME280;53789;51.392;10.234;2022-07-23T00:24:34;98418.44;;;16.68;77.79
66880;BME280;53789;51.392;10.234;2022-07-23T00:24:55;98419.59;;;16.67;78.96
66880;BME280;53789;51.392;10.234;2022-07-23T00:25:15;98416.00;;;16.67;78.64
66880;BME280;53789;51.392;10.234;2022-07-23T00:25:36;98415.66;;;16.68;78.35
66880;BME280;53789;51.392;10.234;2022-07-23T00:25:56;98410.13;;;16.68;79.28
66880;BME280;53789;51.392;10.234;2022-07-23T00:26:16;98411.75;;;16.69;79.12
66880;BME280;53789;51.392;10.234;2022-07-23T00:26:37;98411.75;;;16.69;78.76
66880;BME280;53789;51.392;10.234;2022-07-23T00:26:57;98404.22;;;16.70;78.70
66880;BME280;53789;51.392;10.234;2022-07-23T00:27:17;98409.44;;;16.71;78.94
66880;BME280;53789;51.392;10.234;2022-07-23T00:27:38;98411.84;;;16.73;78.80
66880;BME280;53789;51.392;10.234;2022-07-23T00:27:59;98407.94;;;16.74;78.96
66880;BME280;53789;51.392;10.234;2022-07-23T00:28:20;98418.69;;;16.76;79.28
66880;BME280;53789;51.392;10.234;2022-07-23T00:28:40;98410.03;;;16.77;79.62
66880;BME280;53789;51.392;10.234;2022-07-23T00:29:00;98412.81;;;16.77;78.79
66880;BME280;53789;51.392;10.234;2022-07-23T00:29:21;98410.81;;;16.78;79.00
66880;BME280;53789;51.392;10.234;2022-07-23T00:29:41;98408.88;;;16.78;78.33
66880;BME280;53789;51.392;10.234;2022-07-23T00:30:02;98408.53;;;16.80;78.13
66880;BME280;53789;51.392;10.234;2022-07-23T00:30:22;98407.34;;;16.81;78.67
66880;BME280;53789;51.392;10.234;2022-07-23T00:30:42;98415.34;;;16.82;79.08
66880;BME280;53789;51.392;10.234;2022-07-23T00:31:03;98409.44;;;16.84;78.96
66880;BME280;53789;51.392;10.234;2022-07-23T00:31:23;98413.06;;;16.84;79.21
66880;BME280;53789;51.392;10.234;2022-07-23T00:31:44;98409.13;;;16.85;78.39
66880;BME280;53789;51.392;10.234;2022-07-23T00:32:04;98419.06;;;16.86;78.94
66880;BME280;53789;51.392;10.234;2022-07-23T00:32:24;98419.06;;;16.86;78.82
66880;BME280;53789;51.392;10.234;2022-07-23T00:32:55;98415.94;;;16.88;78.84
66880;BME280;53789;51.392;10.234;2022-07-23T00:33:15;98418.72;;;16.88;79.04
66880;BME280;53789;51.392;10.234;2022-07-23T00:33:35;98418.72;;;16.88;78.96
66880;BME280;53789;51.392;10.234;2022-07-23T00:33:56;98419.91;;;16.87;78.47
66880;BME280;53789;51.392;10.234;2022-07-23T00:34:16;98424.63;;;16.86;78.19
66880;BME280;53789;51.392;10.234;2022-07-23T00:34:36;98424.97;;;16.85;78.52
66880;BME280;53789;51.392;10.234;2022-07-23T00:34:56;98431.34;;;16.85;77.95
66880;BME280;53789;51.392;10.234;2022-07-23T00:35:20;98432.16;;;16.86;78.16
66880;BME280;53789;51.392;10.234;2022-07-23T00:35:41;98436.06;;;16.85;78.40
66880;BME280;53789;51.392;10.234;2022-07-23T00:36:01;98435.28;;;16.84;77.59
66880;BME280;53789;51.392;10.234;2022-07-23T00:36:23;98434.78;;;16.82;77.96
66880;BME280;53789;51.392;10.234;2022-07-23T00:36:43;98423.22;;;16.80;77.14
66880;BME280;53789;51.392;10.234;2022-07-23T00:37:04;98426.00;;;16.80;77.93
66880;BME280;53789;51.392;10.234;2022-07-23T00:37:24;98418.00;;;16.79;78.20
66880;BME280;53789;51.392;10.234;2022-07-23T00:37:44;98416.38;;;16.78;77.96
66880;BME280;53789;51.392;10.234;2022-07-23T00:38:05;98411.66;;;16.78;78.21
66880;BME280;53789;51.392;10.234;2022-07-23T00:38:25;98408.06;;;16.78;78.50
66880;BME280;53789;51.392;10.234;2022-07-23T00:38:45;98410.03;;;16.77;79.07
66880;BME280;53789;51.392;10.234;2022-07-23T00:39:06;98410.81;;;16.78;78.37
66880;BME280;53789;51.392;10.234;2022-07-23T00:39:26;98412.47;;;16.79;77.94
66880;BME280;53789;51.392;10.234;2022-07-23T00:39:46;98409.69;;;16.79;77.81
66880;BME280;53789;51.392;10.234;2022-07-23T00:40:07;98415.59;;;16.77;78.80
66880;BME280;53789;51.392;10.234;2022-07-23T00:40:29;98411.50;;;16.74;78.59
66880;BME280;53789;51.392;10.234;2022-07-23T00:40:50;98409.09;;;16.73;78.62
66880;BME280;53789;51.392;10.234;2022-07-23T00:41:10;98411.75;;;16.69;78.94
66880;BME280;53789;51.392;10.234;2022-07-23T00:41:30;98412.91;;;16.68;79.62
66880;BME280;53789;51.392;10.234;2022-07-23T00:41:51;98406.53;;;16.68;79.16
66880;BME280;53789;51.392;10.234;2022-07-23T00:42:12;98413.69;;;16.69;79.32
66880;BME280;53789;51.392;10.234;2022-07-23T00:42:32;98404.56;;;16.68;79.11
66880;BME280;53789;51.392;10.234;2022-07-23T00:42:53;98399.00;;;16.68;79.29
66880;BME280;53789;51.392;10.234;2022-07-23T00:43:13;98397.03;;;16.69;79.18
66880;BME280;53789;51.392;10.234;2022-07-23T00:43:34;98387.91;;;16.68;79.25
66880;BME280;53789;51.392;10.234;2022-07-23T00:43:54;98390.69;;;16.68;79.83
66880;BME280;53789;51.392;10.234;2022-07-23T00:44:38;98385.94;;;16.69;78.76
66880;BME280;53789;51.392;10.234;2022-07-23T00:44:58;98379.56;;;16.68;78.28
66880;BME280;53789;51.392;10.234;2022-07-23T00:45:19;98383.97;;;16.69;78.37
66880;BME280;53789;51.392;10.234;2022-07-23T00:45:40;98380.03;;;16.70;79.00
66880;BME280;53789;51.392;10.234;2022-07-23T00:46:00;98385.59;;;16.70;79.26
66880;BME280;53789;51.392;10.234;2022-07-23T00:46:22;98387.22;;;16.71;78.70
66880;BME280;53789;51.392;10.234;2022-07-23T00:46:52;98383.63;;;16.71;80.27
66880;BME280;53789;51.392;10.234;2022-07-23T00:47:12;98380.84;;;16.71;78.79
66880;BME280;53789;51.392;10.234;2022-07-23T00:47:33;98391.97;;;16.71;79.07
66880;BME280;53789;51.392;10.234;2022-07-23T00:47:53;98387.22;;;16.71;78.99
66880;BME280;53789;51.392;10.234;2022-07-23T00:48:13;98393.25;;;16.73;79.85
66880;BME280;53789;51.392;10.234;2022-07-23T00:48:34;98388.50;;;16.74;80.09
66880;BME280;53789;51.392;10.234;2022-07-23T00:48:54;98389.31;;;16.74;79.73
66880;BME280;53789;51.392;10.234;2022-07-23T00:49:14;98388.16;;;16.76;79.84
66880;BME280;53789;51.392;10.234;2022-07-23T00:49:35;98388.16;;;16.76;79.57
66880;BME280;53789;51.392;10.234;2022-07-23T00:49:55;98384.56;;;16.75;79.08
66880;BME280;53789;51.392;10.234;2022-07-23T00:50:16;98383.75;;;16.74;78.77
66880;BME280;53789;51.392;10.234;2022-07-23T00:50:36;98380.97;;;16.74;78.61
66880;BME280;53789;51.392;10.234;2022-07-23T00:50:57;98380.16;;;16.74;78.53
66880;BME280;53789;51.392;10.234;2022-07-23T00:51:17;98372.97;;;16.73;79.00
66880;BME280;53789;51.392;10.234;2022-07-23T00:51:38;98371.69;;;16.70;79.18
66880;BME280;53789;51.392;10.234;2022-07-23T00:52:01;98364.06;;;16.67;78.75
66880;BME280;53789;51.392;10.234;2022-07-23T00:52:22;98357.69;;;16.67;79.52
66880;BME280;53789;51.392;10.234;2022-07-23T00:52:44;98362.47;;;16.66;78.73
66880;BME280;53789;51.392;10.234;2022-07-23T00:53:05;98366.03;;;16.67;79.18
66880;BME280;53789;51.392;10.234;2022-07-23T00:53:25;98366.84;;;16.67;79.78
66880;BME280;53789;51.392;10.234;2022-07-23T00:53:46;98370.44;;;16.68;79.74
66880;BME280;53789;51.392;10.234;2022-07-23T00:54:06;98369.59;;;16.67;80.16
66880;BME280;53789;51.392;10.234;2022-07-23T00:54:27;98375.16;;;16.67;80.01
66880;BME280;53789;51.392;10.234;2022-07-23T00:54:48;98377.50;;;16.65;80.03
66880;BME280;53789;51.392;10.234;2022-07-23T00:55:10;98390.56;;;16.65;80.38
66880;BME280;53789;51.392;10.234;2022-07-23T00:55:31;98390.91;;;16.63;80.59
66880;BME280;53789;51.392;10.234;2022-07-23T00:55:53;98388.78;;;16.60;80.00
66880;BME280;53789;51.392;10.234;2022-07-23T00:56:14;98391.91;;;16.59;79.66
66880;BME280;53789;51.392;10.234;2022-07-23T00:56:34;98393.09;;;16.58;79.14
66880;BME280;53789;51.392;10.234;2022-07-23T00:56:55;98394.22;;;16.56;79.26
66880;BME280;53789;51.392;10.234;2022-07-23T00:57:15;98389.03;;;16.55;79.41
66880;BME280;53789;51.392;10.234;2022-07-23T00:57:37;98388.56;;;16.53;79.36
66880;BME280;53789;51.392;10.234;2022-07-23T00:57:58;98392.84;;;16.50;80.21
66880;BME280;53789;51.392;10.234;2022-07-23T00:58:18;98390.41;;;16.49;80.10
66880;BME280;53789;51.392;10.234;2022-07-23T00:58:42;98387.13;;;16.47;80.25
66880;BME280;53789;51.392;10.234;2022-07-23T00:59:03;98385.53;;;16.46;80.15
66880;BME280;53789;51.392;10.234;2022-07-23T00:59:23;98385.53;;;16.46;79.36
66880;BME280;53789;51.392;10.234;2022-07-23T00:59:44;98378.81;;;16.47;79.26
66880;BME280;53789;51.392;10.234;2022-07-23T01:00:07;98375.69;;;16.48;79.81
66880;BME280;53789;51.392;10.234;2022-07-23T01:00:28;98372.13;;;16.48;79.59
66880;BME280;53789;51.392;10.234;2022-07-23T01:00:49;98373.25;;;16.47;80.01
66880;BME280;53789;51.392;10.234;2022-07-23T01:01:11;98369.81;;;16.50;79.32
66880;BME280;53789;51.392;10.234;2022-07-23T01:01:31;98369.47;;;16.51;79.28
66880;BME280;53789;51.392;10.234;2022-07-23T01:01:51;98375.50;;;16.53;80.45
66880;BME280;53789;51.392;10.234;2022-07-23T01:02:12;98370.75;;;16.54;79.28
66880;BME280;53789;51.392;10.234;2022-07-23T01:02:32;98371.22;;;16.56;79.94
66880;BME280;53789;51.392;10.234;2022-07-23T01:02:53;98370.03;;;16.57;79.76
66880;BME280;53789;51.392;10.234;2022-07-23T01:03:13;98371.69;;;16.58;79.52
66880;BME280;53789;51.392;10.234;2022-07-23T01:03:34;98376.09;;;16.59;79.72
66880;BME280;53789;51.392;10.234;2022-07-23T01:03:54;98382.09;;;16.61;79.91
66880;BME280;53789;51.392;10.234;2022-07-23T01:04:15;98380.16;;;16.62;79.93
66880;BME280;53789;51.392;10.234;2022-07-23T01:04:36;98378.97;;;16.63;80.54
66880;BME280;53789;51.392;10.234;2022-07-23T01:04:56;98380.94;;;16.62;79.65
66880;BME280;53789;51.392;10.234;2022-07-23T01:05:17;98390.91;;;16.63;80.18
66880;BME280;53789;51.392;10.234;2022-07-23T01:05:37;98386.50;;;16.62;79.78
66880;BME280;53789;51.392;10.234;2022-07-23T01:05:58;98382.59;;;16.63;78.85
66880;BME280;53789;51.392;10.234;2022-07-23T01:06:19;98388.13;;;16.63;79.12
66880;BME280;53789;51.392;10.234;2022-07-23T01:06:39;98386.16;;;16.64;79.67
66880;BME280;53789;51.392;10.234;2022-07-23T01:07:00;98386.97;;;16.64;78.79
66880;BME280;53789;51.392;10.234;2022-07-23T01:07:21;98382.59;;;16.63;78.66
66880;BME280;53789;51.392;10.234;2022-07-23T01:07:42;98388.94;;;16.64;79.29
66880;BME280;53789;51.392;10.234;2022-07-23T01:08:03;98390.91;;;16.63;78.45
66880;BME280;53789;51.392;10.234;2022-07-23T01:08:24;98382.59;;;16.63;79.39
66880;BME280;53789;51.392;10.234;2022-07-23T01:08:45;98381.75;;;16.63;79.35
66880;BME280;53789;51.392;10.234;2022-07-23T01:09:07;98380.94;;;16.62;78.81
66880;BME280;53789;51.392;10.234;2022-07-23T01:09:27;98385.34;;;16.63;78.94
66880;BME280;53789;51.392;10.234;2022-07-23T01:09:51;98385.34;;;16.63;78.93
66880;BME280;53789;51.392;10.234;2022-07-23T01:10:11;98381.41;;;16.64;78.28
66880;BME280;53789;51.392;10.234;2022-07-23T01:10:31;98381.06;;;16.66;78.46
66880;BME280;53789;51.392;10.234;2022-07-23T01:10:52;98380.25;;;16.65;78.90
66880;BME280;53789;51.392;10.234;2022-07-23T01:11:13;98380.72;;;16.67;78.43
66880;BME280;53789;51.392;10.234;2022-07-23T01:11:34;98379.91;;;16.67;78.17
66880;BME280;53789;51.392;10.234;2022-07-23T01:11:56;98389.06;;;16.67;77.86
66880;BME280;53789;51.392;10.234;2022-07-23T01:12:17;98382.69;;;16.67;78.60
66880;BME280;53789;51.392;10.234;2022-07-23T01:12:38;98384.66;;;16.66;78.43
66880;BME280;53789;51.392;10.234;2022-07-23T01:13:04;98389.06;;;16.67;77.97
66880;BME280;53789;51.392;10.234;2022-07-23T01:13:25;98387.91;;;16.68;78.53
66880;BME280;53789;51.392;10.234;2022-07-23T01:13:45;98397.03;;;16.69;78.39
66880;BME280;53789;51.392;10.234;2022-07-23T01:14:13;98405.03;;;16.70;78.43
66880;BME280;53789;51.392;10.234;2022-07-23T01:14:34;98391.13;;;16.70;77.96
66880;BME280;53789;51.392;10.234;2022-07-23T01:14:55;98396.69;;;16.70;78.82
66880;BME280;53789;51.392;10.234;2022-07-23T01:15:16;98394.41;;;16.72;78.17
66880;BME280;53789;51.392;10.234;2022-07-23T01:15:38;98396.34;;;16.72;79.12
66880;BME280;53789;51.392;10.234;2022-07-23T01:15:58;98393.91;;;16.70;77.91
66880;BME280;53789;51.392;10.234;2022-07-23T01:16:19;98391.97;;;16.71;78.32
66880;BME280;53789;51.392;10.234;2022-07-23T01:16:41;98395.09;;;16.69;78.68
66880;BME280;53789;51.392;10.234;2022-07-23T01:17:01;98388.69;;;16.69;78.60
66880;BME280;53789;51.392;10.234;2022-07-23T01:17:22;98390.69;;;16.68;79.42
66880;BME280;53789;51.392;10.234;2022-07-23T01:17:42;98397.88;;;16.69;79.89
66880;BME280;53789;51.392;10.234;2022-07-23T01:18:05;98392.31;;;16.69;79.02
66880;BME280;53789;51.392;10.234;2022-07-23T01:18:25;98397.88;;;16.69;79.02
66880;BME280;53789;51.392;10.234;2022-07-23T01:18:45;98388.34;;;16.70;78.40
66880;BME280;53789;51.392;10.234;2022-07-23T01:19:06;98398.31;;;16.71;78.93
66880;BME280;53789;51.392;10.234;2022-07-23T01:19:26;98388.00;;;16.72;79.00
66880;BME280;53789;51.392;10.234;2022-07-23T01:19:46;98386.06;;;16.72;78.17
66880;BME280;53789;51.392;10.234;2022-07-23T01:20:07;98386.88;;;16.73;78.10
66880;BME280;53789;51.392;10.234;2022-07-23T01:20:28;98387.69;;;16.73;78.06
66880;BME280;53789;51.392;10.234;2022-07-23T01:20:48;98380.16;;;16.74;78.48
66880;BME280;53789;51.392;10.234;2022-07-23T01:21:12;98388.97;;;16.76;77.86
66880;BME280;53789;51.392;10.234;2022-07-23T01:21:39;98385.03;;;16.77;78.07
66880;BME280;53789;51.392;10.234;2022-07-23T01:22:03;98381.44;;;16.77;78.70
66880;BME280;53789;51.392;10.234;2022-07-23T01:22:29;98383.06;;;16.78;78.58
66880;BME280;53789;51.392;10.234;2022-07-23T01:22:50;98385.84;;;16.78;78.21
66880;BME280;53789;51.392;10.234;2022-07-23T01:23:11;98381.91;;;16.79;78.29
66880;BME280;53789;51.392;10.234;2022-07-23T01:23:31;98383.53;;;16.80;77.94
66880;BME280;53789;51.392;10.234;2022-07-23T01:23:51;98384.69;;;16.79;79.11
66880;BME280;53789;51.392;10.234;2022-07-23T01:24:12;98382.72;;;16.79;78.55
66880;BME280;53789;51.392;10.234;2022-07-23T01:24:33;98391.03;;;16.79;78.85
66880;BME280;53789;51.392;10.234;2022-07-23T01:24:53;98380.75;;;16.80;78.65
66880;BME280;53789;51.392;10.234;2022-07-23T01:25:13;98386.78;;;16.82;79.06
66880;BME280;53789;51.392;10.234;2022-07-23T01:25:34;98393.97;;;16.83;78.69
66880;BME280;53789;51.392;10.234;2022-07-23T01:25:55;98389.19;;;16.83;79.20
66880;BME280;53789;51.392;10.234;2022-07-23T01:26:15;98389.19;;;16.83;78.89
66880;BME280;53789;51.392;10.234;2022-07-23T01:26:37;98392.78;;;16.84;78.53
66880;BME280;53789;51.392;10.234;2022-07-23T01:26:57;98391.63;;;16.85;78.81
66880;BME280;53789;51.392;10.234;2022-07-23T01:27:18;98390.50;;;16.86;78.96
66880;BME280;53789;51.392;10.234;2022-07-23T01:27:38;98393.25;;;16.86;78.96
66880;BME280;53789;51.392;10.234;2022-07-23T01:27:59;98392.13;;;16.87;79.10
66880;BME280;53789;51.392;10.234;2022-07-23T01:28:19;98387.84;;;16.89;79.12
66880;BME280;53789;51.392;10.234;2022-07-23T01:28:39;98390.63;;;16.89;79.36
66880;BME280;53789;51.392;10.234;2022-07-23T01:29:00;98392.25;;;16.90;79.01
66880;BME280;53789;51.392;10.234;2022-07-23T01:29:21;98385.56;;;16.92;78.01
66880;BME280;53789;51.392;10.234;2022-07-23T01:29:41;98391.13;;;16.92;78.58
66880;BME280;53789;51.392;10.234;2022-07-23T01:30:03;98380.44;;;16.94;78.50
66880;BME280;53789;51.392;10.234;2022-07-23T01:30:24;98383.22;;;16.94;77.87
66880;BME280;53789;51.392;10.234;2022-07-23T01:30:45;98378.47;;;16.94;77.99
66880;BME280;53789;51.392;10.234;2022-07-23T01:31:05;98377.69;;;16.94;78.61
66880;BME280;53789;51.392;10.234;2022-07-23T01:31:26;98377.69;;;16.94;78.28
66880;BME280;53789;51.392;10.234;2022-07-23T01:31:46;98370.84;;;16.91;77.72
66880;BME280;53789;51.392;10.234;2022-07-23T01:32:07;98377.56;;;16.90;78.36
66880;BME280;53789;51.392;10.234;2022-07-23T01:32:27;98372.00;;;16.90;78.34
66880;BME280;53789;51.392;10.234;2022-07-23T01:32:48;98367.91;;;16.87;77.90
66880;BME280;53789;51.392;10.234;2022-07-23T01:33:08;98365.50;;;16.86;78.94
66880;BME280;53789;51.392;10.234;2022-07-23T01:33:28;98361.09;;;16.85;79.08
66880;BME280;53789;51.392;10.234;2022-07-23T01:33:49;98358.31;;;16.85;78.77
66880;BME280;53789;51.392;10.234;2022-07-23T01:34:09;98358.66;;;16.83;78.88
66880;BME280;53789;51.392;10.234;2022-07-23T01:34:30;98356.22;;;16.82;78.42
66880;BME280;53789;51.392;10.234;2022-07-23T01:34:50;98353.00;;;16.80;79.45
66880;BME280;53789;51.392;10.234;2022-07-23T01:35:10;98357.25;;;16.77;79.51
66880;BME280;53789;51.392;10.234;2022-07-23T01:35:31;98356.47;;;16.77;79.11
66880;BME280;53789;51.392;10.234;2022-07-23T01:35:51;98353.19;;;16.74;79.41
66880;BME280;53789;51.392;10.234;2022-07-23T01:36:12;98358.28;;;16.72;78.49
66880;BME280;53789;51.392;10.234;2022-07-23T01:36:33;98360.25;;;16.72;78.46
66880;BME280;53789;51.392;10.234;2022-07-23T01:36:53;98369.75;;;16.71;79.26
66880;BME280;53789;51.392;10.234;2022-07-23T01:37:13;98367.31;;;16.69;78.74
66880;BME280;53789;51.392;10.234;2022-07-23T01:37:34;98381.19;;;16.69;80.06
66880;BME280;53789;51.392;10.234;2022-07-23T01:37:54;98379.56;;;16.68;79.32
66880;BME280;53789;51.392;10.234;2022-07-23T01:38:15;98382.69;;;16.67;78.92
66880;BME280;53789;51.392;10.234;2022-07-23T01:38:35;98379.81;;;16.63;78.93
66880;BME280;53789;51.392;10.234;2022-07-23T01:38:55;98389.97;;;16.59;78.63
66880;BME280;53789;51.392;10.234;2022-07-23T01:39:16;98397.81;;;16.57;78.82
66880;BME280;53789;51.392;10.234;2022-07-23T01:39:36;98399.34;;;16.54;79.73
66880;BME280;53789;51.392;10.234;2022-07-23T01:39:56;98406.38;;;16.52;79.74
66880;BME280;53789;51.392;10.234;2022-07-23T01:40:17;98410.97;;;16.48;79.35
66880;BME280;53789;51.392;10.234;2022-07-23T01:40:37;98408.88;;;16.45;79.50
66880;BME280;53789;51.392;10.234;2022-07-23T01:40:57;98408.78;;;16.41;79.50
66880;BME280;53789;51.392;10.234;2022-07-23T01:41:18;98407.47;;;16.38;79.97
66880;BME280;53789;51.392;10.234;2022-07-23T01:41:38;98406.53;;;16.34;80.81
66880;BME280;53789;51.392;10.234;2022-07-23T01:41:58;98404.44;;;16.31;79.94
66880;BME280;53789;51.392;10.234;2022-07-23T01:42:19;98396.81;;;16.28;80.73
66880;BME280;53789;51.392;10.234;2022-07-23T01:42:39;98391.09;;;16.25;80.83
66880;BME280;53789;51.392;10.234;2022-07-23T01:42:59;98389.50;;;16.24;81.47
66880;BME280;53789;51.392;10.234;2022-07-23T01:43:20;98377.56;;;16.23;81.77
66880;BME280;53789;51.392;10.234;2022-07-23T01:43:40;98375.13;;;16.21;81.55
66880;BME280;53789;51.392;10.234;2022-07-23T01:44:01;98364.03;;;16.21;81.69
66880;BME280;53789;51.392;10.234;2022-07-23T01:44:21;98364.88;;;16.22;82.63
66880;BME280;53789;51.392;10.234;2022-07-23T01:44:41;98360.13;;;16.23;82.31
66880;BME280;53789;51.392;10.234;2022-07-23T01:45:04;98346.25;;;16.23;83.22
66880;BME280;53789;51.392;10.234;2022-07-23T01:45:24;98350.66;;;16.24;82.39
66880;BME280;53789;51.392;10.234;2022-07-23T01:45:44;98338.72;;;16.23;82.10
66880;BME280;53789;51.392;10.234;2022-07-23T01:46:05;98338.72;;;16.23;81.73
66880;BME280;53789;51.392;10.234;2022-07-23T01:46:26;98337.13;;;16.22;81.54
66880;BME280;53789;51.392;10.234;2022-07-23T01:46:46;98332.38;;;16.23;82.11
66880;BME280;53789;51.392;10.234;2022-07-23T01:47:06;98337.47;;;16.20;82.00
66880;BME280;53789;51.392;10.234;2022-07-23T01:47:27;98336.63;;;16.20;82.26
66880;BME280;53789;51.392;10.234;2022-07-23T01:47:48;98342.66;;;16.22;81.85
66880;BME280;53789;51.392;10.234;2022-07-23T01:48:08;98340.25;;;16.20;82.29
66880;BME280;53789;51.392;10.234;2022-07-23T01:48:28;98342.53;;;16.18;82.20
66880;BME280;53789;51.392;10.234;2022-07-23T01:48:49;98344.16;;;16.19;83.08
66880;BME280;53789;51.392;10.234;2022-07-23T01:49:10;98343.34;;;16.19;82.66